Time;durP1;ratioP1;P1;durP2;ratioP2;P2;SDS_P1;SDS_P2;PMS_P1;PMS_P2;Temp;Humidity;BMP_temperature;BMP_pressure;BME280_temperature;BME280_humidity;BME280_pressure;Samples;Min_cycle;Max_cycle;Signal;HPM_P1;HPM_P2
2022/01/11 00:00:45;;;;;;;;;;;26.60;99.90;;;;;;5072961;28;19909;-74
2022/01/11 00:03:13;;;;;;;;;;;26.60;99.90;;;;;;5072876;28;19958;-74
2022/01/11 00:05:53;;;;;;;;;;;26.60;99.90;;;;;;5073054;28;20322;-73
2022/01/11 00:08:29;;;;;;;;;;;26.80;99.90;;;;;;5072933;28;19966;-74
2022/01/11 00:11:03;;;;;;;;;;;26.90;99.90;;;;;;5072710;28;19924;-73
2022/01/11 00:13:29;;;;;;;;;;;27.10;99.90;;;;;;5072792;28;19908;-73
2022/01/11 00:15:56;;;;;;;;;;;27.20;99.90;;;;;;5072575;28;20367;-72
2022/01/11 00:18:22;;;;;;;;;;;27.20;99.90;;;;;;5072675;28;19912;-72
2022/01/11 00:20:49;;;;;;;;;;;27.10;99.90;;;;;;5072588;28;19918;-73
2022/01/11 00:25:44;;;;;;;;;;;26.90;99.90;;;;;;5072922;28;19954;-75
2022/01/11 00:28:12;;;;;;;;;;;27.00;99.90;;;;;;5072540;28;19930;-75
2022/01/11 00:30:41;;;;;;;;;;;27.00;99.90;;;;;;5071606;28;20389;-74
2022/01/11 00:33:12;;;;;;;;;;;27.00;99.90;;;;;;5072594;28;19999;-73
2022/01/11 00:35:49;;;;;;;;;;;27.00;99.90;;;;;;5072272;28;20335;-74
2022/01/11 00:38:17;;;;;;;;;;;27.10;99.90;;;;;;5072755;28;19917;-73
2022/01/11 00:40:47;;;;;;;;;;;27.10;99.90;;;;;;5072717;28;20377;-74
2022/01/11 00:43:14;;;;;;;;;;;27.20;99.90;;;;;;5072308;28;20355;-74
2022/01/11 00:45:41;;;;;;;;;;;27.20;99.90;;;;;;5072383;28;19962;-74
2022/01/11 00:48:08;;;;;;;;;;;27.30;99.90;;;;;;5072075;28;20363;-73
2022/01/11 00:50:36;;;;;;;;;;;27.40;99.90;;;;;;5072289;28;20025;-73
2022/01/11 00:53:03;;;;;;;;;;;27.50;99.90;;;;;;5072469;28;19961;-73
2022/01/11 00:55:31;;;;;;;;;;;27.80;99.90;;;;;;5072290;28;19908;-73
2022/01/11 00:57:57;;;;;;;;;;;28.00;99.90;;;;;;5072049;28;19931;-77
2022/01/11 01:00:25;;;;;;;;;;;28.40;99.90;;;;;;5071804;28;19930;-75
2022/01/11 01:02:51;;;;;;;;;;;28.50;99.90;;;;;;5072200;28;19924;-73
2022/01/11 01:05:18;;;;;;;;;;;28.80;99.90;;;;;;5072217;28;20000;-75
2022/01/11 01:07:45;;;;;;;;;;;29.00;99.90;;;;;;5072013;28;19915;-76
2022/01/11 01:13:06;;;;;;;;;;;28.50;99.90;;;;;;5070074;28;19948;-75
2022/01/11 01:15:34;;;;;;;;;;;28.00;99.90;;;;;;5072043;28;19916;-75
2022/01/11 01:18:01;;;;;;;;;;;28.00;99.90;;;;;;5071586;28;19908;-75
2022/01/11 01:20:28;;;;;;;;;;;28.20;99.90;;;;;;5071943;28;19909;-75
2022/01/11 01:22:54;;;;;;;;;;;28.40;99.90;;;;;;5071914;28;19913;-72
2022/01/11 01:25:23;;;;;;;;;;;28.40;99.90;;;;;;5072091;28;19909;-76
2022/01/11 01:27:50;;;;;;;;;;;28.40;99.90;;;;;;5071572;28;19995;-76
2022/01/11 01:30:17;;;;;;;;;;;28.30;99.90;;;;;;5072059;28;19913;-74
2022/01/11 01:32:45;;;;;;;;;;;28.60;99.90;;;;;;5071853;28;19909;-76
2022/01/11 01:35:12;;;;;;;;;;;28.80;99.90;;;;;;5071734;28;19908;-77
2022/01/11 01:37:39;;;;;;;;;;;28.80;99.90;;;;;;5070593;28;19908;-75
2022/01/11 01:40:06;;;;;;;;;;;28.80;99.90;;;;;;5071795;28;20033;-76
2022/01/11 01:42:34;;;;;;;;;;;28.60;99.90;;;;;;5075201;28;20279;-76
2022/01/11 01:45:03;;;;;;;;;;;28.00;99.90;;;;;;5075338;28;19995;-75
2022/01/11 01:47:31;;;;;;;;;;;27.70;99.90;;;;;;5075543;28;20081;-76
2022/01/11 01:49:57;;;;;;;;;;;27.50;99.90;;;;;;5075255;28;19909;-76
2022/01/11 01:52:25;;;;;;;;;;;27.30;99.90;;;;;;5075072;28;19908;-76
2022/01/11 01:54:52;;;;;;;;;;;27.10;99.90;;;;;;5075339;28;19915;-76
2022/01/11 01:57:19;;;;;;;;;;;26.90;99.90;;;;;;5075216;28;20423;-77
2022/01/11 01:59:45;;;;;;;;;;;26.90;99.90;;;;;;5075359;28;19946;-73
2022/01/11 02:02:13;;;;;;;;;;;26.90;99.90;;;;;;5074908;28;19962;-76
2022/01/11 02:04:41;;;;;;;;;;;26.90;99.90;;;;;;5074886;28;20290;-74
2022/01/11 02:07:07;;;;;;;;;;;26.70;99.90;;;;;;5074601;28;19908;-76
2022/01/11 02:09:34;;;;;;;;;;;26.70;99.90;;;;;;5074885;28;19913;-76
2022/01/11 02:12:01;;;;;;;;;;;26.70;99.90;;;;;;5074945;28;20378;-75
2022/01/11 02:14:27;;;;;;;;;;;26.70;99.90;;;;;;5074941;28;19909;-75
2022/01/11 02:16:56;;;;;;;;;;;26.60;99.90;;;;;;5074914;28;19970;-76
2022/01/11 02:19:23;;;;;;;;;;;26.60;99.90;;;;;;5074879;28;19916;-74
2022/01/11 02:21:49;;;;;;;;;;;26.60;99.90;;;;;;5074370;28;20302;-74
2022/01/11 02:24:16;;;;;;;;;;;26.60;99.90;;;;;;5074671;28;19959;-75
2022/01/11 02:26:43;;;;;;;;;;;26.60;99.90;;;;;;5074755;28;19908;-76
2022/01/11 02:29:09;;;;;;;;;;;26.70;99.90;;;;;;5074672;28;19916;-76
2022/01/11 02:31:39;;;;;;;;;;;26.60;99.90;;;;;;5074809;28;19908;-75
2022/01/11 02:34:06;;;;;;;;;;;26.60;99.90;;;;;;5074478;28;20030;-75
2022/01/11 02:36:34;;;;;;;;;;;26.50;99.90;;;;;;5074309;28;19908;-76
2022/01/11 02:39:01;;;;;;;;;;;26.50;99.90;;;;;;5074561;28;19912;-76
2022/01/11 02:41:29;;;;;;;;;;;26.60;99.90;;;;;;5074584;28;19908;-76
2022/01/11 02:43:56;;;;;;;;;;;26.70;99.90;;;;;;5074124;28;19927;-73
2022/01/11 02:46:23;;;;;;;;;;;26.80;99.90;;;;;;5074530;28;19934;-73
2022/01/11 02:48:51;;;;;;;;;;;26.70;99.90;;;;;;5074478;28;20282;-74
2022/01/11 02:51:17;;;;;;;;;;;26.70;99.90;;;;;;5074158;28;19916;-77
2022/01/11 02:53:45;;;;;;;;;;;26.90;99.90;;;;;;5073241;28;19912;-76
2022/01/11 02:56:13;;;;;;;;;;;27.10;99.90;;;;;;5074208;28;20355;-73
2022/01/11 02:58:39;;;;;;;;;;;27.20;99.90;;;;;;5074373;28;20359;-76
2022/01/11 03:01:07;;;;;;;;;;;27.10;99.90;;;;;;5074183;28;20350;-75
2022/01/11 03:03:34;;;;;;;;;;;26.70;99.90;;;;;;5074002;28;20375;-76
2022/01/11 03:06:02;;;;;;;;;;;26.60;99.90;;;;;;5073743;28;19918;-72
2022/01/11 03:08:30;;;;;;;;;;;26.60;99.90;;;;;;5073975;28;19909;-75
2022/01/11 03:10:57;;;;;;;;;;;26.70;99.90;;;;;;5073794;28;19920;-76
2022/01/11 03:13:24;;;;;;;;;;;26.80;99.90;;;;;;5073861;28;19909;-74
2022/01/11 03:15:53;;;;;;;;;;;26.70;99.90;;;;;;5073692;28;20347;-76
2022/01/11 03:18:20;;;;;;;;;;;26.60;99.90;;;;;;5073616;28;19908;-75
2022/01/11 03:20:49;;;;;;;;;;;26.50;99.90;;;;;;5073631;28;19915;-72
2022/01/11 03:23:16;;;;;;;;;;;26.50;99.90;;;;;;5106402;28;19916;-74
2022/01/11 03:25:43;;;;;;;;;;;26.60;99.90;;;;;;5073532;28;20263;-76
2022/01/11 03:28:10;;;;;;;;;;;26.60;99.90;;;;;;5073311;28;19909;-77
2022/01/11 03:30:37;;;;;;;;;;;26.70;99.90;;;;;;5073528;28;20457;-75
2022/01/11 03:33:06;;;;;;;;;;;26.70;99.90;;;;;;5073723;28;19909;-75
2022/01/11 03:35:32;;;;;;;;;;;26.50;99.90;;;;;;5073304;28;20389;-76
2022/01/11 03:37:59;;;;;;;;;;;26.40;99.90;;;;;;5073247;28;19978;-76
2022/01/11 03:40:26;;;;;;;;;;;26.40;99.90;;;;;;5073257;28;19917;-76
2022/01/11 03:42:54;;;;;;;;;;;26.40;99.90;;;;;;5073231;28;20325;-76
2022/01/11 03:45:21;;;;;;;;;;;26.30;99.90;;;;;;5073222;28;19909;-72
2022/01/11 03:47:49;;;;;;;;;;;26.20;99.90;;;;;;5073108;28;20321;-75
2022/01/11 03:50:16;;;;;;;;;;;26.10;99.90;;;;;;5072963;28;19916;-75
2022/01/11 03:52:44;;;;;;;;;;;26.00;99.90;;;;;;5072994;28;19909;-76
2022/01/11 03:55:21;;;;;;;;;;;25.90;99.90;;;;;;5072888;28;19994;-77
2022/01/11 03:57:48;;;;;;;;;;;25.90;99.90;;;;;;5072582;28;19909;-75
2022/01/11 04:00:17;;;;;;;;;;;25.90;99.90;;;;;;5072626;28;19934;-76
2022/01/11 04:02:44;;;;;;;;;;;25.80;99.90;;;;;;5072755;28;19924;-74
2022/01/11 04:05:12;;;;;;;;;;;25.80;99.90;;;;;;5072357;28;20368;-74
2022/01/11 04:07:40;;;;;;;;;;;25.80;99.90;;;;;;5072917;28;20318;-77
2022/01/11 04:10:08;;;;;;;;;;;25.80;99.90;;;;;;5072340;28;19947;-77
2022/01/11 04:12:36;;;;;;;;;;;25.80;99.90;;;;;;5072641;28;20322;-75
2022/01/11 04:15:03;;;;;;;;;;;25.80;99.90;;;;;;5072779;28;20294;-77
2022/01/11 04:17:30;;;;;;;;;;;25.80;99.90;;;;;;5072752;28;19958;-77
2022/01/11 04:19:56;;;;;;;;;;;25.80;99.90;;;;;;5072216;28;19908;-75
2022/01/11 04:22:23;;;;;;;;;;;25.80;99.90;;;;;;5072803;28;19995;-76
2022/01/11 04:24:50;;;;;;;;;;;25.70;99.90;;;;;;5072763;28;19916;-76
2022/01/11 04:27:16;;;;;;;;;;;25.80;99.90;;;;;;5072282;28;19908;-74
2022/01/11 04:29:43;;;;;;;;;;;25.80;99.90;;;;;;5072288;28;19962;-77
2022/01/11 04:32:10;;;;;;;;;;;25.90;99.90;;;;;;5071985;28;19915;-74
2022/01/11 04:34:36;;;;;;;;;;;25.80;99.90;;;;;;5072244;28;19909;-76
2022/01/11 04:37:03;;;;;;;;;;;25.80;99.90;;;;;;5072521;28;19915;-76
2022/01/11 04:39:30;;;;;;;;;;;25.80;99.90;;;;;;5072319;28;19963;-75
2022/01/11 04:41:56;;;;;;;;;;;25.90;99.90;;;;;;5072317;28;19999;-76
2022/01/11 04:44:23;;;;;;;;;;;25.80;99.90;;;;;;5072212;28;19931;-75
2022/01/11 04:46:49;;;;;;;;;;;25.80;99.90;;;;;;5072281;28;19916;-77
2022/01/11 04:49:16;;;;;;;;;;;25.90;99.90;;;;;;5072148;28;19959;-76
2022/01/11 04:51:43;;;;;;;;;;;25.90;99.90;;;;;;5072235;28;20329;-77
2022/01/11 04:54:10;;;;;;;;;;;25.80;99.90;;;;;;5071960;28;19909;-76
2022/01/11 04:56:37;;;;;;;;;;;25.80;99.90;;;;;;5072464;28;20003;-76
2022/01/11 04:59:03;;;;;;;;;;;25.70;99.90;;;;;;5072354;28;19916;-76
2022/01/11 05:01:32;;;;;;;;;;;25.60;99.90;;;;;;5072354;28;20005;-73
2022/01/11 05:03:59;;;;;;;;;;;25.70;99.90;;;;;;5072161;28;19920;-73
2022/01/11 05:06:25;;;;;;;;;;;25.70;99.90;;;;;;5072225;28;20011;-73
2022/01/11 05:08:52;;;;;;;;;;;25.70;99.90;;;;;;5072209;28;19908;-73
2022/01/11 05:11:21;;;;;;;;;;;25.60;99.90;;;;;;5052224;28;19925;-74
2022/01/11 05:13:47;;;;;;;;;;;25.60;99.90;;;;;;5052085;28;19909;-72
2022/01/11 05:16:14;;;;;;;;;;;25.60;99.90;;;;;;5053900;28;19963;-74
2022/01/11 05:18:41;;;;;;;;;;;25.70;99.90;;;;;;5055980;28;19908;-73
2022/01/11 05:21:07;;;;;;;;;;;25.60;99.90;;;;;;5055937;28;19962;-73
2022/01/11 05:23:34;;;;;;;;;;;25.60;99.90;;;;;;5055997;28;19917;-71
2022/01/11 05:26:02;;;;;;;;;;;25.60;99.90;;;;;;5055829;28;19916;-72
2022/01/11 05:28:28;;;;;;;;;;;25.60;99.90;;;;;;5055897;28;19913;-74
2022/01/11 05:30:55;;;;;;;;;;;25.60;99.90;;;;;;5055888;28;19912;-75
2022/01/11 05:33:22;;;;;;;;;;;25.60;99.90;;;;;;5055713;28;19924;-72
2022/01/11 05:35:49;;;;;;;;;;;25.50;99.90;;;;;;5055319;28;19909;-72
2022/01/11 05:38:15;;;;;;;;;;;25.40;99.90;;;;;;5055595;28;20011;-74
2022/01/11 05:40:42;;;;;;;;;;;25.30;99.90;;;;;;5055648;28;19909;-72
2022/01/11 05:43:09;;;;;;;;;;;25.20;99.90;;;;;;5055624;28;20012;-72
2022/01/11 05:45:36;;;;;;;;;;;25.10;99.90;;;;;;5055690;28;19910;-76
2022/01/11 05:48:03;;;;;;;;;;;25.10;99.90;;;;;;5055227;28;19913;-76
2022/01/11 05:50:31;;;;;;;;;;;25.10;99.90;;;;;;5055017;28;19914;-76
2022/01/11 05:52:58;;;;;;;;;;;25.10;99.90;;;;;;5052666;28;19915;-75
2022/01/11 05:55:24;;;;;;;;;;;24.90;99.90;;;;;;5053408;28;20465;-76
2022/01/11 05:57:51;;;;;;;;;;;24.80;99.90;;;;;;5052796;28;20280;-76
2022/01/11 06:00:19;;;;;;;;;;;24.90;99.90;;;;;;5053421;28;20347;-76
2022/01/11 06:02:48;;;;;;;;;;;24.90;99.90;;;;;;5053276;28;19912;-75
2022/01/11 06:05:16;;;;;;;;;;;25.00;99.90;;;;;;5052721;28;19912;-76
2022/01/11 06:07:43;;;;;;;;;;;25.00;99.90;;;;;;5035403;28;19971;-76
2022/01/11 06:10:10;;;;;;;;;;;25.00;99.90;;;;;;5063322;28;19952;-77
2022/01/11 06:12:37;;;;;;;;;;;25.00;99.90;;;;;;5073075;28;20811;-77
2022/01/11 06:15:04;;;;;;;;;;;25.00;99.90;;;;;;5073080;28;19995;-76
2022/01/11 06:17:30;;;;;;;;;;;25.00;99.90;;;;;;5072782;28;19909;-76
2022/01/11 06:19:57;;;;;;;;;;;25.00;99.90;;;;;;5072574;28;19908;-77
2022/01/11 06:22:24;;;;;;;;;;;25.10;99.90;;;;;;5105192;28;19920;-76
2022/01/11 06:24:51;;;;;;;;;;;25.10;99.90;;;;;;5072610;28;19920;-75
2022/01/11 06:27:18;;;;;;;;;;;25.00;99.90;;;;;;5070264;28;19942;-76
2022/01/11 06:29:45;;;;;;;;;;;25.10;99.90;;;;;;5073024;28;19913;-76
2022/01/11 06:32:11;;;;;;;;;;;25.10;99.90;;;;;;5072268;28;20534;-76
2022/01/11 06:34:38;;;;;;;;;;;25.10;99.90;;;;;;5072518;28;20382;-74
2022/01/11 06:37:05;;;;;;;;;;;25.20;99.90;;;;;;5072711;28;19909;-77
2022/01/11 06:39:36;;;;;;;;;;;25.10;99.90;;;;;;5072338;28;19997;-75
2022/01/11 06:42:03;;;;;;;;;;;25.00;99.90;;;;;;5072336;28;19919;-76
2022/01/11 06:44:30;;;;;;;;;;;25.00;99.90;;;;;;5072040;28;19927;-74
2022/01/11 06:46:57;;;;;;;;;;;24.90;99.90;;;;;;5072420;28;19913;-76
2022/01/11 06:49:24;;;;;;;;;;;24.80;99.90;;;;;;5072244;28;19909;-75
2022/01/11 06:51:50;;;;;;;;;;;24.80;99.90;;;;;;5072189;28;19909;-76
2022/01/11 06:54:17;;;;;;;;;;;24.80;99.90;;;;;;5072389;28;19912;-76
2022/01/11 06:56:43;;;;;;;;;;;24.70;99.90;;;;;;5071835;28;19912;-77
2022/01/11 06:59:10;;;;;;;;;;;24.70;99.90;;;;;;5072222;28;19909;-76
2022/01/11 07:01:38;;;;;;;;;;;24.80;99.90;;;;;;5071961;28;20298;-76
2022/01/11 07:04:05;;;;;;;;;;;24.80;99.90;;;;;;5071018;28;19917;-76
2022/01/11 07:06:31;;;;;;;;;;;24.70;99.90;;;;;;5071853;28;20417;-76
2022/01/11 07:08:58;;;;;;;;;;;24.60;99.90;;;;;;5071669;28;19909;-76
2022/01/11 07:11:25;;;;;;;;;;;24.60;99.90;;;;;;5071599;28;19963;-76
2022/01/11 07:13:51;;;;;;;;;;;24.60;99.90;;;;;;5071610;28;20359;-76
2022/01/11 07:16:18;;;;;;;;;;;24.60;99.90;;;;;;5071856;28;19908;-77
2022/01/11 07:18:45;;;;;;;;;;;24.60;99.90;;;;;;5071050;28;19915;-76
2022/01/11 07:21:11;;;;;;;;;;;24.50;99.90;;;;;;5071243;28;19909;-77
2022/01/11 07:23:38;;;;;;;;;;;24.50;99.90;;;;;;5071279;28;19924;-76
2022/01/11 07:26:07;;;;;;;;;;;24.50;99.90;;;;;;5071438;28;19954;-75
2022/01/11 07:28:35;;;;;;;;;;;24.50;99.90;;;;;;5071438;28;19958;-74
2022/01/11 07:31:02;;;;;;;;;;;24.40;99.90;;;;;;5071366;28;20355;-73
2022/01/11 07:33:28;;;;;;;;;;;24.30;99.90;;;;;;5071233;28;20344;-74
2022/01/11 07:35:55;;;;;;;;;;;24.30;99.90;;;;;;5070139;28;19919;-74
2022/01/11 07:38:22;;;;;;;;;;;24.20;99.90;;;;;;5070755;28;19934;-75
2022/01/11 07:40:49;;;;;;;;;;;24.30;99.90;;;;;;5071066;28;19912;-74
2022/01/11 07:43:15;;;;;;;;;;;24.30;99.90;;;;;;5070741;28;19945;-72
2022/01/11 07:45:42;;;;;;;;;;;24.40;99.90;;;;;;5070903;28;19908;-77
2022/01/11 07:48:09;;;;;;;;;;;24.40;99.90;;;;;;5070666;28;19915;-73
2022/01/11 07:50:35;;;;;;;;;;;24.30;99.90;;;;;;5070038;28;19916;-76
2022/01/11 07:53:05;;;;;;;;;;;24.30;99.90;;;;;;5071276;28;19912;-74
2022/01/11 07:55:32;;;;;;;;;;;24.20;99.90;;;;;;5070825;28;19913;-74
2022/01/11 07:57:59;;;;;;;;;;;24.20;99.90;;;;;;5070822;28;19908;-76
2022/01/11 08:00:26;;;;;;;;;;;24.30;99.90;;;;;;5070633;28;20318;-76
2022/01/11 08:02:52;;;;;;;;;;;24.20;99.90;;;;;;5070263;28;19973;-75
2022/01/11 08:05:21;;;;;;;;;;;24.20;99.90;;;;;;5070783;28;19936;-75
2022/01/11 08:07:48;;;;;;;;;;;24.20;99.90;;;;;;5072468;28;19920;-76
2022/01/11 08:10:18;;;;;;;;;;;24.30;99.90;;;;;;5072550;28;19921;-77
2022/01/11 08:12:45;;;;;;;;;;;24.20;99.90;;;;;;5072718;28;19908;-77
2022/01/11 08:15:12;;;;;;;;;;;24.20;99.90;;;;;;5072631;28;19915;-77
2022/01/11 08:17:40;;;;;;;;;;;24.20;99.90;;;;;;5072508;28;19909;-75
2022/01/11 08:20:07;;;;;;;;;;;24.30;99.90;;;;;;5071733;28;19923;-76
2022/01/11 08:22:34;;;;;;;;;;;24.20;99.90;;;;;;5072318;28;19936;-75
2022/01/11 08:25:01;;;;;;;;;;;24.30;99.90;;;;;;5072630;28;19913;-76
2022/01/11 08:27:27;;;;;;;;;;;24.30;99.90;;;;;;5072612;28;19995;-76
2022/01/11 08:29:54;;;;;;;;;;;24.20;99.90;;;;;;5072155;28;20004;-76
2022/01/11 08:32:21;;;;;;;;;;;24.20;99.90;;;;;;5072424;28;19909;-76
2022/01/11 08:34:48;;;;;;;;;;;24.10;99.90;;;;;;5072219;28;19908;-74
2022/01/11 08:37:14;;;;;;;;;;;24.10;99.90;;;;;;5072468;28;19942;-75
2022/01/11 08:39:42;;;;;;;;;;;24.00;99.90;;;;;;5072504;28;20341;-74
2022/01/11 08:42:12;;;;;;;;;;;24.10;99.90;;;;;;5072329;28;20044;-75
2022/01/11 08:44:39;;;;;;;;;;;24.10;99.90;;;;;;5072154;28;20011;-76
2022/01/11 08:47:07;;;;;;;;;;;24.10;99.90;;;;;;5072447;28;19919;-76
2022/01/11 08:49:34;;;;;;;;;;;24.20;99.90;;;;;;5072009;28;20271;-77
2022/01/11 08:52:00;;;;;;;;;;;24.10;99.90;;;;;;5071417;28;19909;-76
2022/01/11 08:54:27;;;;;;;;;;;24.10;99.90;;;;;;5072190;28;19908;-77
2022/01/11 08:56:55;;;;;;;;;;;24.10;99.90;;;;;;5072141;28;19909;-76
2022/01/11 08:59:24;;;;;;;;;;;24.10;99.90;;;;;;5072206;28;20003;-76
2022/01/11 09:01:52;;;;;;;;;;;24.10;99.90;;;;;;5072129;28;19915;-73
2022/01/11 09:04:20;;;;;;;;;;;24.10;99.90;;;;;;5071832;28;20012;-76
2022/01/11 09:06:47;;;;;;;;;;;24.10;99.90;;;;;;5072377;28;20352;-76
2022/01/11 09:09:14;;;;;;;;;;;24.10;99.90;;;;;;5072128;28;19908;-76
2022/01/11 09:11:42;;;;;;;;;;;24.00;99.90;;;;;;5072292;28;20368;-74
2022/01/11 09:14:09;;;;;;;;;;;24.00;99.90;;;;;;5072134;28;19917;-76
2022/01/11 09:16:36;;;;;;;;;;;23.90;99.90;;;;;;5072136;28;20375;-76
2022/01/11 09:19:03;;;;;;;;;;;23.90;99.90;;;;;;5072058;28;20231;-76
2022/01/11 09:21:31;;;;;;;;;;;23.80;99.90;;;;;;5071971;28;19908;-74
2022/01/11 09:23:58;;;;;;;;;;;23.80;99.90;;;;;;5071609;28;19955;-76
2022/01/11 09:26:24;;;;;;;;;;;23.80;99.90;;;;;;5072067;28;19908;-76
2022/01/11 09:28:52;;;;;;;;;;;23.80;99.90;;;;;;5072165;28;19954;-76
2022/01/11 09:31:18;;;;;;;;;;;23.80;99.90;;;;;;5072120;28;19999;-75
2022/01/11 09:33:45;;;;;;;;;;;23.70;99.90;;;;;;5071327;28;19908;-76
2022/01/11 09:36:11;;;;;;;;;;;23.80;99.90;;;;;;5071934;28;20602;-76
2022/01/11 09:38:38;;;;;;;;;;;23.70;99.90;;;;;;5071891;28;19909;-77
2022/01/11 09:41:05;;;;;;;;;;;23.70;99.90;;;;;;5071952;28;19912;-76
2022/01/11 09:43:32;;;;;;;;;;;23.70;99.90;;;;;;5071758;28;19916;-73
2022/01/11 09:45:58;;;;;;;;;;;23.60;99.90;;;;;;5071763;28;19916;-76
2022/01/11 09:48:26;;;;;;;;;;;23.60;99.90;;;;;;5071173;28;19954;-76
2022/01/11 09:50:53;;;;;;;;;;;23.60;99.90;;;;;;5072023;28;19912;-77
2022/01/11 09:53:19;;;;;;;;;;;23.60;99.90;;;;;;5071877;28;19908;-77
2022/01/11 09:55:47;;;;;;;;;;;23.60;99.90;;;;;;5071428;28;20433;-76
2022/01/11 09:58:14;;;;;;;;;;;23.70;99.90;;;;;;5071971;28;20275;-76
2022/01/11 10:00:41;;;;;;;;;;;23.70;99.90;;;;;;5071841;28;19909;-76
2022/01/11 10:03:08;;;;;;;;;;;23.80;99.90;;;;;;5073598;28;20389;-76
2022/01/11 10:05:38;;;;;;;;;;;23.80;99.90;;;;;;5075081;28;20220;-75
2022/01/11 10:08:20;;;;;;;;;;;23.80;99.90;;;;;;5074795;28;19909;-76
2022/01/11 10:10:48;;;;;;;;;;;23.80;99.90;;;;;;5074893;28;19920;-75
2022/01/11 10:13:29;;;;;;;;;;;23.80;99.90;;;;;;5075194;28;20377;-76
2022/01/11 10:15:56;;;;;;;;;;;23.80;99.90;;;;;;5074988;28;19970;-75
2022/01/11 10:18:36;;;;;;;;;;;23.80;99.90;;;;;;5074276;28;20271;-74
2022/01/11 10:21:22;;;;;;;;;;;23.90;99.90;;;;;;5073715;28;19951;-76
2022/01/11 10:23:49;;;;;;;;;;;23.90;99.90;;;;;;5073052;28;19916;-74
2022/01/11 10:26:35;;;;;;;;;;;23.90;99.90;;;;;;5072895;28;20340;-75
2022/01/11 10:29:02;;;;;;;;;;;23.80;99.90;;;;;;5072587;28;19916;-72
2022/01/11 10:31:34;;;;;;;;;;;23.80;99.90;;;;;;5072944;28;19959;-73
2022/01/11 10:34:02;;;;;;;;;;;23.80;99.90;;;;;;5072058;28;19908;-73
2022/01/11 10:36:44;;;;;;;;;;;23.80;99.90;;;;;;5072412;28;20394;-74
2022/01/11 10:39:33;;;;;;;;;;;23.70;99.90;;;;;;5072394;28;19974;-77
2022/01/11 10:42:01;;;;;;;;;;;23.70;99.90;;;;;;5072588;28;19920;-75
2022/01/11 10:44:48;;;;;;;;;;;23.60;99.90;;;;;;5072370;28;20275;-74
2022/01/11 10:47:19;;;;;;;;;;;23.60;99.90;;;;;;5071598;28;19909;-72
2022/01/11 10:49:45;;;;;;;;;;;23.60;99.90;;;;;;5072061;28;19920;-74
2022/01/11 10:52:16;;;;;;;;;;;23.50;99.90;;;;;;5072382;28;20260;-75
2022/01/11 10:54:43;;;;;;;;;;;23.60;99.90;;;;;;5072280;28;20015;-76
2022/01/11 10:57:24;;;;;;;;;;;23.50;99.90;;;;;;5072196;28;19920;-76
2022/01/11 11:00:10;;;;;;;;;;;23.60;99.90;;;;;;5071909;28;19908;-73
2022/01/11 11:02:37;;;;;;;;;;;23.60;99.90;;;;;;5070952;28;19913;-72
2022/01/11 11:05:18;;;;;;;;;;;23.50;99.90;;;;;;5072222;28;19924;-75
2022/01/11 11:07:53;;;;;;;;;;;23.50;99.90;;;;;;5104366;28;19909;-75
2022/01/11 11:10:27;;;;;;;;;;;23.50;99.90;;;;;;5071844;28;20287;-75
2022/01/11 11:12:57;;;;;;;;;;;23.40;99.90;;;;;;5071596;28;20314;-75
2022/01/11 11:15:35;;;;;;;;;;;23.40;99.90;;;;;;5071346;28;19958;-75
2022/01/11 11:18:03;;;;;;;;;;;23.40;99.90;;;;;;5070923;28;19919;-76
2022/01/11 11:20:33;;;;;;;;;;;23.40;99.90;;;;;;5071603;28;19912;-73
2022/01/11 11:23:02;;;;;;;;;;;23.40;99.90;;;;;;5071440;28;20187;-73
2022/01/11 11:25:28;;;;;;;;;;;23.40;99.90;;;;;;5071702;28;20655;-74
2022/01/11 11:27:55;;;;;;;;;;;23.40;99.90;;;;;;5071540;28;19915;-71
2022/01/11 11:30:22;;;;;;;;;;;23.40;99.90;;;;;;5071374;28;19944;-74
2022/01/11 11:32:51;;;;;;;;;;;23.30;99.90;;;;;;5070736;28;20359;-75
2022/01/11 11:35:18;;;;;;;;;;;23.30;99.90;;;;;;5071389;28;19908;-73
2022/01/11 11:37:46;;;;;;;;;;;23.30;99.90;;;;;;5071564;28;20285;-75
2022/01/11 11:40:13;;;;;;;;;;;23.30;99.90;;;;;;5071624;28;19908;-76
2022/01/11 11:42:40;;;;;;;;;;;23.30;99.90;;;;;;5070924;28;19908;-74
2022/01/11 11:45:17;;;;;;;;;;;23.30;99.90;;;;;;5071137;28;19919;-75
2022/01/11 11:47:45;;;;;;;;;;;23.30;99.90;;;;;;5070591;28;19962;-74
2022/01/11 11:50:17;;;;;;;;;;;23.20;99.90;;;;;;5071397;28;20316;-72
2022/01/11 11:52:45;;;;;;;;;;;23.30;99.90;;;;;;5071290;28;19961;-75
2022/01/11 11:55:19;;;;;;;;;;;23.30;99.90;;;;;;5070910;28;19913;-75
2022/01/11 11:57:46;;;;;;;;;;;23.30;99.90;;;;;;5071094;28;19912;-72
2022/01/11 12:00:19;;;;;;;;;;;23.20;99.90;;;;;;5071056;28;19908;-74
2022/01/11 12:02:47;;;;;;;;;;;23.20;99.90;;;;;;5070448;28;19913;-75
2022/01/11 12:05:30;;;;;;;;;;;23.20;99.90;;;;;;5071230;28;19913;-75
2022/01/11 12:07:57;;;;;;;;;;;23.20;99.90;;;;;;5070368;28;19912;-76
2022/01/11 12:10:43;;;;;;;;;;;23.20;99.90;;;;;;5070734;28;20015;-76
2022/01/11 12:13:10;;;;;;;;;;;23.20;99.90;;;;;;5070563;28;19919;-74
2022/01/11 12:15:37;;;;;;;;;;;23.20;99.90;;;;;;5070688;28;20387;-76
2022/01/11 12:18:04;;;;;;;;;;;23.20;99.90;;;;;;5069910;28;19909;-75
2022/01/11 12:20:44;;;;;;;;;;;23.20;99.90;;;;;;5070115;28;20357;-76
2022/01/11 12:23:13;;;;;;;;;;;23.10;99.90;;;;;;5070481;28;20395;-75
2022/01/11 12:25:43;;;;;;;;;;;23.10;99.90;;;;;;5070486;28;20432;-73
2022/01/11 12:28:18;;;;;;;;;;;23.10;99.90;;;;;;5070394;28;19958;-76
2022/01/11 12:30:44;;;;;;;;;;;23.00;99.90;;;;;;5070253;28;20320;-75
2022/01/11 12:33:14;;;;;;;;;;;23.00;99.90;;;;;;5070486;28;20312;-76
2022/01/11 12:35:55;;;;;;;;;;;22.90;99.90;;;;;;5070179;28;19908;-76
2022/01/11 12:38:23;;;;;;;;;;;22.90;99.90;;;;;;5070582;28;19934;-76
2022/01/11 12:40:50;;;;;;;;;;;23.00;99.90;;;;;;5070637;28;20026;-75
2022/01/11 12:43:35;;;;;;;;;;;23.00;99.90;;;;;;5070436;28;20363;-74
2022/01/11 12:46:05;;;;;;;;;;;23.00;99.90;;;;;;5070230;28;19913;-75
2022/01/11 12:48:48;;;;;;;;;;;23.00;99.90;;;;;;5069951;28;20313;-77
2022/01/11 12:51:27;;;;;;;;;;;23.00;99.90;;;;;;5070517;28;19912;-77
2022/01/11 12:54:09;;;;;;;;;;;23.00;99.90;;;;;;5070426;28;20362;-77
2022/01/11 12:56:36;;;;;;;;;;;23.00;99.90;;;;;;5070368;28;19966;-78
2022/01/11 12:59:03;;;;;;;;;;;23.00;99.90;;;;;;5070503;28;19909;-76
2022/01/11 13:01:30;;;;;;;;;;;23.00;99.90;;;;;;5069917;28;19916;-79
2022/01/11 13:04:00;;;;;;;;;;;22.90;99.90;;;;;;5070080;28;19916;-74
2022/01/11 13:06:30;;;;;;;;;;;22.90;99.90;;;;;;5070365;28;19912;-77
2022/01/11 13:08:59;;;;;;;;;;;23.00;99.90;;;;;;5070109;28;19962;-78
2022/01/11 13:11:25;;;;;;;;;;;23.00;99.90;;;;;;5070511;28;19966;-78
2022/01/11 13:14:17;;;;;;;;;;;22.90;99.90;;;;;;5069982;28;20363;-77
2022/01/11 13:16:49;;;;;;;;;;;23.00;99.90;;;;;;5070130;28;19920;-77
2022/01/11 13:19:16;;;;;;;;;;;23.00;99.90;;;;;;5070147;28;19909;-78
2022/01/11 13:21:43;;;;;;;;;;;22.90;99.90;;;;;;5070127;28;19913;-76
2022/01/11 13:24:23;;;;;;;;;;;22.90;99.90;;;;;;5069794;28;19920;-77
2022/01/11 13:26:51;;;;;;;;;;;22.90;99.90;;;;;;5069926;28;19958;-77
2022/01/11 13:29:18;;;;;;;;;;;22.90;99.90;;;;;;5070151;28;19941;-77
2022/01/11 13:31:52;;;;;;;;;;;22.90;99.90;;;;;;5068666;28;19916;-77
2022/01/11 13:34:22;;;;;;;;;;;22.90;99.90;;;;;;5070151;28;19909;-73
2022/01/11 13:36:52;;;;;;;;;;;22.90;99.90;;;;;;5070896;28;20424;-78
2022/01/11 13:39:21;;;;;;;;;;;22.90;99.90;;;;;;5073449;28;19936;-78
2022/01/11 13:41:49;;;;;;;;;;;22.90;99.90;;;;;;5073651;28;19909;-77
2022/01/11 13:44:17;;;;;;;;;;;22.80;99.90;;;;;;5073783;28;19966;-77
2022/01/11 13:46:44;;;;;;;;;;;22.90;99.90;;;;;;5073537;28;19912;-76
2022/01/11 13:49:18;;;;;;;;;;;22.90;99.90;;;;;;5073622;28;19912;-77
2022/01/11 13:51:46;;;;;;;;;;;22.80;99.90;;;;;;5073538;28;19915;-77
2022/01/11 13:54:13;;;;;;;;;;;22.90;99.90;;;;;;5073341;28;19912;-77
2022/01/11 13:56:42;;;;;;;;;;;22.90;99.90;;;;;;5073586;28;19915;-77
2022/01/11 13:59:10;;;;;;;;;;;22.80;99.90;;;;;;5073257;28;19915;-77
2022/01/11 14:01:38;;;;;;;;;;;22.80;99.90;;;;;;5073449;28;19923;-77
2022/01/11 14:04:04;;;;;;;;;;;22.80;99.90;;;;;;5073297;28;19956;-77
2022/01/11 14:06:40;;;;;;;;;;;22.80;99.90;;;;;;5073048;28;19916;-77
2022/01/11 14:09:11;;;;;;;;;;;22.80;99.90;;;;;;5073353;28;19935;-78
2022/01/11 14:11:40;;;;;;;;;;;22.80;99.90;;;;;;5073415;28;20466;-77
2022/01/11 14:14:07;;;;;;;;;;;22.70;99.90;;;;;;5073260;28;19916;-77
2022/01/11 14:16:34;;;;;;;;;;;22.70;99.90;;;;;;5073064;28;19908;-77
2022/01/11 14:19:05;;;;;;;;;;;22.80;99.90;;;;;;5071337;28;19912;-78
2022/01/11 14:21:31;;;;;;;;;;;22.70;99.90;;;;;;5073237;28;20363;-77
2022/01/11 14:23:59;;;;;;;;;;;22.80;99.90;;;;;;5072676;28;20526;-77
2022/01/11 14:26:35;;;;;;;;;;;22.80;99.90;;;;;;5073221;28;19908;-78
2022/01/11 14:29:02;;;;;;;;;;;22.80;99.90;;;;;;5072983;28;20261;-77